Time;durP1;ratioP1;P1;durP2;ratioP2;P2;SDS_P1;SDS_P2;PMS_P1;PMS_P2;Temp;Humidity;BMP_temperature;BMP_pressure;BME280_temperature;BME280_humidity;BME280_pressure;Samples;Min_cycle;Max_cycle;Signal;HPM_P1;HPM_P2
2023/09/15 00:01:39;;;;;;;2.65;2.03;;;;;;;14.65;67.20;95891.78;4755713;30;20217;-83
2023/09/15 00:04:47;;;;;;;;;;;;;;;;;;;;;
2023/09/15 00:13:56;;;;;;;2.30;1.93;;;;;;;14.64;67.57;95903.22;4722652;30;20220;-84
2023/09/15 00:16:56;;;;;;;3.78;2.50;;;;;;;14.65;67.45;95897.00;4731909;30;20299;-84
2023/09/15 00:19:48;;;;;;;4.20;2.40;;;;;;;14.66;67.10;95906.47;4703232;30;20300;-84
2023/09/15 00:22:48;;;;;;;4.47;2.58;;;;;;;14.62;67.72;95895.53;4727795;30;20262;-84
2023/09/15 00:25:41;;;;;;;5.88;2.20;;;;;;;14.65;67.70;95891.78;4718906;30;20692;-83
2023/09/15 00:28:09;;;;;;;5.95;3.08;;;;;;;14.67;67.21;95888.03;4730575;30;20899;-84
2023/09/15 00:31:05;;;;;;;4.72;2.10;;;;;;;14.67;67.57;95888.03;4724234;30;20208;-84
2023/09/15 00:33:51;;;;;;;3.97;2.33;;;;;;;14.69;67.37;95880.03;4729097;30;20341;-83
2023/09/15 00:36:48;;;;;;;2.53;1.92;;;;;;;14.70;67.61;95876.41;4732970;30;20217;-85
2023/09/15 00:39:33;;;;;;;2.50;2.30;;;;;;;14.69;67.50;95874.78;4731444;30;20245;-85
2023/09/15 00:42:14;;;;;;;3.05;2.30;;;;;;;14.72;67.84;95875.25;4725039;30;20197;-83
2023/09/15 00:45:11;;;;;;;2.58;2.30;;;;;;;14.74;67.84;95880.31;4774784;29;20206;-85
2023/09/15 00:48:02;;;;;;;;;;;;;;;;;;;;;
2023/09/15 00:50:56;;;;;;;3.67;2.10;;;;;;;14.79;68.16;95875.44;4817925;29;20195;-85
2023/09/15 00:53:27;;;;;;;3.50;2.35;;;;;;;14.75;68.24;95876.72;4718305;30;20341;-83
2023/09/15 00:56:07;;;;;;;4.53;2.47;;;;;;;14.71;68.21;95872.81;4720633;30;20303;-89
2023/09/15 00:58:53;;;;;;;3.42;2.63;;;;;;;14.71;68.54;95870.22;4710072;30;20996;-84
2023/09/15 01:01:51;;;;;;;3.35;2.60;;;;;;;14.69;68.57;95861.72;4731744;30;20295;-84
2023/09/15 01:04:31;;;;;;;;;;;;;;;;;;;;;
2023/09/15 01:07:36;;;;;;;3.95;2.55;;;;;;;14.68;69.24;95862.72;4752580;30;20227;-85
2023/09/15 01:10:14;;;;;;;4.55;2.95;;;;;;;14.66;69.22;95859.41;4739350;30;20227;-86
2023/09/15 01:12:48;;;;;;;5.72;2.60;;;;;;;14.64;69.29;95858.78;4736865;30;20237;-84
2023/09/15 01:19:30;;;;;;;3.65;2.80;;;;;;;14.64;69.77;95856.16;4748305;30;20219;-86
2023/09/15 01:26:30;;;;;;;2.47;2.17;;;;;;;14.64;69.90;95851.75;4689415;30;20207;-84
2023/09/15 01:29:37;;;;;;;4.60;2.47;;;;;;;14.58;70.10;95849.00;4673772;30;20597;-85
2023/09/15 01:32:22;;;;;;;4.88;3.22;;;;;;;14.55;70.20;95844.91;4708853;30;20308;-84
2023/09/15 01:35:20;;;;;;;;;;;;;;;;;;;;;
2023/09/15 01:37:59;;;;;;;3.83;2.67;;;;;;;14.59;70.27;95848.00;4689358;30;20700;-86
2023/09/15 01:40:38;;;;;;;3.33;2.95;;;;;;;14.58;70.37;95847.19;4710185;30;20240;-86
2023/09/15 01:43:39;;;;;;;3.20;2.90;;;;;;;14.56;70.51;95840.47;4688832;30;20221;-84
2023/09/15 01:46:17;;;;;;;4.13;2.85;;;;;;;14.55;70.61;95846.69;4706568;30;20220;-83
2023/09/15 01:48:43;;;;;;;4.03;2.95;;;;;;;14.52;70.54;95836.59;4712710;30;20595;-86
2023/09/15 01:51:18;;;;;;;3.38;3.05;;;;;;;14.51;70.59;95833.16;4713379;30;20214;-85
2023/09/15 01:53:53;;;;;;;4.50;2.80;;;;;;;14.48;70.56;95841.31;4692703;30;20238;-86
2023/09/15 01:56:31;;;;;;;3.70;3.08;;;;;;;14.40;70.83;95831.66;4724869;30;20271;-85
2023/09/15 01:59:27;;;;;;;4.70;2.83;;;;;;;14.43;71.04;95839.16;4696060;30;20201;-86
2023/09/15 02:01:59;;;;;;;5.80;2.90;;;;;;;14.38;71.23;95832.78;4742243;29;20221;-86
2023/09/15 02:04:57;;;;;;;4.28;2.47;;;;;;;14.42;71.33;95831.50;4824816;29;20247;-86
2023/09/15 02:07:59;;;;;;;6.25;3.20;;;;;;;14.41;71.63;95835.91;4808186;29;20210;-88
2023/09/15 02:10:37;;;;;;;4.40;2.97;;;;;;;14.41;71.67;95838.53;4787651;29;20293;-85
2023/09/15 02:13:10;;;;;;;3.25;2.78;;;;;;;14.38;71.63;95844.06;4805307;29;20245;-86
2023/09/15 02:15:44;;;;;;;4.57;3.15;;;;;;;14.35;72.01;95846.19;4848391;29;20228;-85
2023/09/15 02:18:12;;;;;;;3.10;2.80;;;;;;;14.32;72.08;95849.94;4819742;29;20334;-86
2023/09/15 02:20:43;;;;;;;3.88;2.53;;;;;;;14.27;72.78;95847.00;4815274;29;20212;-85
2023/09/15 02:23:14;;;;;;;4.57;3.40;;;;;;;14.27;72.43;95838.34;4810391;29;20245;-87
2023/09/15 02:25:46;;;;;;;3.88;3.35;;;;;;;14.29;72.73;95846.84;4813102;29;20189;-85
2023/09/15 02:28:14;;;;;;;4.93;3.50;;;;;;;14.20;72.89;95846.00;4800101;29;20210;-85
2023/09/15 02:30:54;;;;;;;5.13;2.92;;;;;;;14.23;72.74;95850.13;4791436;29;20203;-86
2023/09/15 02:33:35;;;;;;;6.00;2.85;;;;;;;14.18;72.98;95840.97;4814400;29;20226;-86
2023/09/15 02:39:38;;;;;;;5.28;3.03;;;;;;;14.13;73.36;95835.41;4824430;29;20300;-84
2023/09/15 02:42:36;;;;;;;;;;;;;;;;;;;;;
2023/09/15 02:45:36;;;;;;;3.25;2.95;;;;;;;14.13;73.16;95837.19;4811964;29;20204;-85
2023/09/15 02:51:57;;;;;;;3.47;2.80;;;;;;;14.06;73.65;95837.03;4756458;30;20621;-85
2023/09/15 02:54:59;;;;;;;4.63;3.10;;;;;;;14.03;73.65;95831.31;4726680;30;20218;-84
2023/09/15 02:57:29;;;;;;;4.70;3.20;;;;;;;13.99;74.17;95828.22;4734441;30;20215;-85
2023/09/15 03:00:23;;;;;;;4.47;3.13;;;;;;;13.97;74.37;95832.78;4729684;30;20204;-84
2023/09/15 03:03:16;;;;;;;3.67;3.20;;;;;;;13.92;74.93;95834.25;4752711;30;20228;-86
2023/09/15 03:06:10;;;;;;;3.15;2.85;;;;;;;13.92;75.15;95834.25;4752336;30;20356;-86
2023/09/15 03:08:39;;;;;;;4.80;3.27;;;;;;;13.87;75.01;95837.34;4744362;30;20349;-86
2023/09/15 03:11:12;;;;;;;4.07;3.40;;;;;;;13.85;75.42;95834.88;4743244;30;20200;-86
2023/09/15 03:13:41;;;;;;;5.30;3.90;;;;;;;13.82;75.52;95835.19;4746329;30;20236;-85
2023/09/15 03:16:28;;;;;;;5.60;3.13;;;;;;;13.83;76.05;95831.59;4740540;30;20211;-85
2023/09/15 03:19:40;;;;;;;5.38;3.55;;;;;;;13.79;76.01;95830.31;4756093;30;20213;-86
2023/09/15 03:22:21;;;;;;;6.03;3.50;;;;;;;13.80;75.99;95829.34;4752296;30;20303;-86
2023/09/15 03:24:51;;;;;;;4.75;3.38;;;;;;;13.76;75.96;95830.63;4751272;30;20214;-85
2023/09/15 03:27:25;;;;;;;5.68;4.03;;;;;;;13.78;76.10;95823.47;4732193;29;20207;-85
2023/09/15 03:30:15;;;;;;;5.93;3.83;;;;;;;13.82;76.26;95827.38;4794626;29;20214;-85
2023/09/15 03:33:06;;;;;;;4.43;3.70;;;;;;;13.87;76.02;95830.34;4799617;29;20219;-85
2023/09/15 03:35:59;;;;;;;5.38;3.70;;;;;;;13.84;76.06;95825.41;4806927;29;20202;-87
2023/09/15 03:38:46;;;;;;;6.20;3.72;;;;;;;13.87;76.31;95824.28;4807492;29;20198;-85
2023/09/15 03:41:48;;;;;;;5.85;4.30;;;;;;;13.92;75.76;95814.16;4806544;29;20212;-86
2023/09/15 03:44:37;;;;;;;6.30;3.75;;;;;;;13.98;75.46;95817.94;4805791;29;20226;-87
2023/09/15 03:47:34;;;;;;;3.92;3.50;;;;;;;14.00;75.45;95818.59;4805815;29;20198;-86
2023/09/15 03:50:09;;;;;;;4.68;3.38;;;;;;;14.01;75.59;95815.00;4817237;29;20225;-86
2023/09/15 03:52:57;;;;;;;4.78;3.65;;;;;;;14.03;75.54;95816.47;4805839;29;20308;-85
2023/09/15 03:55:39;;;;;;;4.50;3.95;;;;;;;14.00;75.51;95814.19;4818936;29;20201;-85
2023/09/15 03:58:07;;;;;;;6.53;4.43;;;;;;;14.00;75.54;95808.97;4804483;29;20190;-85
2023/09/15 04:00:36;;;;;;;5.88;4.65;;;;;;;14.00;75.84;95808.16;4801685;29;20207;-86
2023/09/15 04:03:17;;;;;;;5.80;4.30;;;;;;;14.00;75.76;95813.38;4790836;29;20653;-86
2023/09/15 04:09:30;;;;;;;8.93;4.63;;;;;;;14.07;75.51;95816.97;4818494;29;20202;-88
2023/09/15 04:12:10;;;;;;;4.90;3.42;;;;;;;14.12;75.54;95819.88;4815401;29;20202;-85
2023/09/15 04:15:11;;;;;;;7.95;3.65;;;;;;;14.12;75.67;95815.47;4805869;29;20313;-85
2023/09/15 04:17:39;;;;;;;5.55;4.00;;;;;;;14.08;75.75;95810.75;4746074;30;20207;-85
2023/09/15 04:20:32;;;;;;;6.27;4.20;;;;;;;14.13;75.41;95814.53;4759139;30;20322;-85
2023/09/15 04:26:40;;;;;;;7.78;4.55;;;;;;;14.23;75.52;95816.16;4740756;30;20204;-85
2023/09/15 04:29:09;;;;;;;5.00;4.50;;;;;;;14.23;75.16;95801.31;4755290;30;20299;-85
2023/09/15 04:32:05;;;;;;;6.67;4.40;;;;;;;14.24;75.13;95808.16;4766127;30;20654;-85
2023/09/15 04:34:31;;;;;;;4.57;4.13;;;;;;;14.20;75.04;95800.78;4766411;30;20297;-87
2023/09/15 04:36:56;;;;;;;6.40;4.65;;;;;;;14.17;75.26;95805.38;4773818;30;20256;-86
2023/09/15 04:39:21;;;;;;;5.63;3.90;;;;;;;14.21;74.93;95803.25;4756637;30;20682;-86
2023/09/15 04:41:46;;;;;;;5.65;4.63;;;;;;;14.17;75.09;95804.56;4756146;30;20208;-84
2023/09/15 04:44:12;;;;;;;5.73;4.07;;;;;;;14.07;75.45;95796.06;4758857;29;20303;-86
2023/09/15 04:46:37;;;;;;;5.23;4.40;;;;;;;14.15;74.94;95793.47;4773141;30;20323;-85
2023/09/15 04:49:03;;;;;;;6.17;4.63;;;;;;;14.16;75.06;95808.16;4759849;30;20290;-86
2023/09/15 04:51:28;;;;;;;7.00;4.93;;;;;;;14.17;74.94;95804.56;4784496;30;20682;-87
2023/09/15 04:53:53;;;;;;;6.68;4.63;;;;;;;14.18;74.85;95795.75;4760444;30;20231;-86
2023/09/15 04:56:19;;;;;;;7.55;4.90;;;;;;;14.16;74.94;95805.53;4765066;29;20306;-85
2023/09/15 04:58:45;;;;;;;6.47;4.85;;;;;;;14.19;74.77;95807.81;4777086;29;20206;-85
2023/09/15 05:01:13;;;;;;;6.37;4.50;;;;;;;14.20;74.26;95801.63;4790181;29;20579;-86
2023/09/15 05:03:39;;;;;;;6.50;4.78;;;;;;;14.25;74.39;95806.34;4812796;29;20222;-83
2023/09/15 05:06:05;;;;;;;5.50;4.97;;;;;;;14.25;74.85;95804.56;4818270;29;20194;-84
2023/09/15 05:08:30;;;;;;;9.43;5.83;;;;;;;14.23;74.75;95803.91;4825348;29;20201;-86
2023/09/15 05:10:56;;;;;;;6.43;4.63;;;;;;;14.29;75.01;95805.03;4803538;29;20615;-86
2023/09/15 05:13:21;;;;;;;6.38;4.75;;;;;;;14.34;75.17;95808.81;4806217;29;20222;-84
2023/09/15 05:15:46;;;;;;;5.50;4.35;;;;;;;14.41;74.65;95812.41;4827370;29;20222;-84
2023/09/15 05:18:12;;;;;;;7.80;4.07;;;;;;;14.44;74.81;95811.25;4818955;29;20194;-84
2023/09/15 05:20:37;;;;;;;5.55;4.07;;;;;;;14.44;74.95;95812.06;4804547;29;20673;-84
2023/09/15 05:23:03;;;;;;;6.30;4.77;;;;;;;14.51;75.04;95814.06;4822324;29;20709;-82
2023/09/15 05:25:28;;;;;;;5.77;4.87;;;;;;;14.49;75.14;95815.97;4824483;29;20273;-82
2023/09/15 05:27:53;;;;;;;5.20;4.57;;;;;;;14.60;75.04;95813.88;4821591;29;20198;-83
2023/09/15 05:30:19;;;;;;;6.63;4.80;;;;;;;14.66;74.83;95817.59;4795239;29;20611;-83
2023/09/15 05:32:44;;;;;;;6.77;4.70;;;;;;;14.68;75.11;95815.66;4816707;29;20351;-80
2023/09/15 05:35:12;;;;;;;7.67;4.33;;;;;;;14.79;74.79;95817.91;4825711;29;20236;-83
2023/09/15 05:37:38;;;;;;;7.00;4.77;;;;;;;14.82;74.77;95821.97;4820094;29;20203;-84
2023/09/15 05:40:03;;;;;;;6.75;4.68;;;;;;;14.88;74.36;95826.56;4806615;29;20263;-84
2023/09/15 05:42:29;;;;;;;7.68;4.88;;;;;;;15.00;74.35;95822.59;4818242;29;20259;-83
2023/09/15 05:44:54;;;;;;;6.55;4.38;;;;;;;15.10;73.91;95819.78;4809573;29;20209;-83
2023/09/15 05:47:23;;;;;;;7.60;4.80;;;;;;;15.13;74.00;95820.28;4822786;29;20254;-84
2023/09/15 05:49:48;;;;;;;5.20;4.65;;;;;;;15.20;73.84;95823.84;4802619;29;20194;-83
2023/09/15 05:52:13;;;;;;;5.55;4.63;;;;;;;15.29;73.34;95824.63;4798902;29;20202;-83
2023/09/15 05:54:39;;;;;;;8.77;4.55;;;;;;;15.37;73.42;95832.44;4821620;29;20657;-83
2023/09/15 05:57:04;;;;;;;5.43;4.50;;;;;;;15.47;73.11;95834.84;4791340;29;20644;-83
2023/09/15 05:59:29;;;;;;;6.20;4.82;;;;;;;15.40;73.83;95832.09;4806240;29;20198;-84
2023/09/15 06:01:56;;;;;;;6.03;5.13;;;;;;;15.40;74.13;95832.09;4818078;29;20238;-85
2023/09/15 06:04:21;;;;;;;5.70;4.93;;;;;;;15.54;73.43;95830.56;4815528;29;20244;-84
2023/09/15 06:06:47;;;;;;;7.45;4.93;;;;;;;15.62;73.91;95829.72;4818803;29;20198;-85
2023/09/15 06:09:13;;;;;;;6.28;5.30;;;;;;;15.69;73.94;95836.72;4802688;29;20284;-84
2023/09/15 06:11:38;;;;;;;7.38;5.63;;;;;;;15.82;74.13;95831.75;4816730;29;20205;-82
2023/09/15 06:14:03;;;;;;;8.88;5.95;;;;;;;15.94;73.85;95829.53;4822854;29;20482;-85
2023/09/15 06:16:29;;;;;;;6.82;5.53;;;;;;;16.10;73.66;95833.88;4808485;29;20195;-84
2023/09/15 06:18:54;;;;;;;8.10;5.43;;;;;;;16.21;73.39;95827.41;4809081;29;20202;-85
2023/09/15 06:21:20;;;;;;;9.27;5.82;;;;;;;16.36;72.97;95825.66;4807849;29;20208;-85
2023/09/15 06:23:45;;;;;;;8.35;6.03;;;;;;;16.45;72.48;95835.06;4800368;29;20301;-85
2023/09/15 06:26:10;;;;;;;6.43;5.35;;;;;;;16.56;72.61;95825.97;4823665;29;20196;-84
2023/09/15 06:28:35;;;;;;;8.25;5.93;;;;;;;16.62;72.22;95828.69;4815067;29;20202;-83
2023/09/15 06:31:02;;;;;;;7.97;5.95;;;;;;;16.57;72.66;95828.41;4805387;29;20209;-83
2023/09/15 06:33:27;;;;;;;6.88;6.07;;;;;;;16.75;71.98;95828.09;4797409;29;20223;-82
2023/09/15 06:35:52;;;;;;;10.15;5.93;;;;;;;16.87;71.81;95826.69;4818936;29;20210;-83
2023/09/15 06:38:18;;;;;;;7.22;5.45;;;;;;;16.90;71.92;95825.50;4810350;29;20185;-84
2023/09/15 06:40:44;;;;;;;6.70;4.65;;;;;;;16.96;71.73;95832.63;4822209;29;20194;-84
2023/09/15 06:43:10;;;;;;;6.57;5.50;;;;;;;17.23;70.57;95837.28;4820841;29;20217;-82
2023/09/15 06:45:35;;;;;;;8.02;6.20;;;;;;;17.39;70.29;95838.06;4816451;29;20242;-80
2023/09/15 06:48:00;;;;;;;7.20;6.03;;;;;;;17.67;69.04;95833.78;4824479;29;20201;-83
2023/09/15 06:50:26;;;;;;;8.82;5.78;;;;;;;17.65;69.33;95841.00;4819057;29;20276;-84
2023/09/15 06:52:51;;;;;;;7.03;5.75;;;;;;;17.85;68.86;95836.03;4804113;29;20685;-82
2023/09/15 06:55:17;;;;;;;8.20;5.90;;;;;;;17.91;69.12;95834.47;4803261;29;20194;-82
2023/09/15 06:57:42;;;;;;;7.07;5.93;;;;;;;18.02;68.31;95837.44;4812758;29;20194;-80
2023/09/15 07:00:09;;;;;;;8.38;6.43;;;;;;;18.02;68.53;95832.19;4837328;29;20217;-80
2023/09/15 07:02:34;;;;;;;7.75;5.85;;;;;;;18.07;68.45;95824.53;4821583;29;20213;-80
2023/09/15 07:04:59;;;;;;;6.55;5.75;;;;;;;18.07;68.36;95831.59;4804997;29;20566;-80
2023/09/15 07:07:25;;;;;;;9.65;6.35;;;;;;;18.16;69.10;95829.66;4825721;29;20190;-81
2023/09/15 07:09:50;;;;;;;7.93;6.47;;;;;;;18.09;69.07;95822.53;4834973;29;20281;-81
2023/09/15 07:12:16;;;;;;;7.40;6.68;;;;;;;18.35;68.11;95826.41;4808527;29;20217;-81
2023/09/15 07:14:41;;;;;;;7.85;6.03;;;;;;;18.35;68.42;95829.84;4797455;29;20185;-81
2023/09/15 07:17:07;;;;;;;6.55;5.88;;;;;;;18.30;68.33;95827.00;4816047;29;20262;-79
2023/09/15 07:19:32;;;;;;;7.85;6.85;;;;;;;18.40;68.50;95827.47;4812548;29;20199;-80
2023/09/15 07:21:57;;;;;;;6.95;6.25;;;;;;;18.48;68.27;95828.34;4824748;29;20238;-81
2023/09/15 07:24:23;;;;;;;8.25;7.40;;;;;;;18.47;68.83;95832.00;4822957;29;20209;-80
2023/09/15 07:26:48;;;;;;;9.30;6.68;;;;;;;18.46;69.17;95825.88;4799592;29;20231;-80
2023/09/15 07:29:13;;;;;;;8.77;6.40;;;;;;;18.57;68.83;95835.91;4817150;29;20217;-80
2023/09/15 07:31:42;;;;;;;9.88;6.97;;;;;;;18.69;68.31;95828.34;4790637;29;20205;-80
2023/09/15 07:34:07;;;;;;;7.40;6.70;;;;;;;18.68;68.25;95829.34;4815446;29;20703;-81
2023/09/15 07:36:32;;;;;;;7.80;7.07;;;;;;;18.78;67.96;95827.19;4805985;29;20198;-80
2023/09/15 07:38:58;;;;;;;7.82;6.63;;;;;;;18.79;67.98;95820.91;4819377;29;20190;-81
2023/09/15 07:41:24;;;;;;;9.20;7.18;;;;;;;18.83;67.50;95824.81;4824419;29;20198;-80
2023/09/15 07:43:50;;;;;;;9.40;7.78;;;;;;;18.90;68.39;95817.75;4809818;29;20198;-81
2023/09/15 07:46:15;;;;;;;9.18;7.30;;;;;;;19.03;66.94;95824.13;4832968;29;20261;-81
2023/09/15 07:48:41;;;;;;;8.15;6.85;;;;;;;19.09;68.12;95820.72;4820183;29;20193;-82
2023/09/15 07:51:07;;;;;;;9.25;6.43;;;;;;;19.22;67.15;95828.69;4807031;29;20186;-81
2023/09/15 07:53:32;;;;;;;7.03;6.22;;;;;;;19.25;66.69;95818.56;4816371;29;20222;-81
2023/09/15 07:55:57;;;;;;;8.95;7.10;;;;;;;19.22;66.37;95818.16;4801496;29;20671;-82
2023/09/15 07:58:23;;;;;;;6.57;5.82;;;;;;;19.36;66.18;95819.84;4799843;29;20201;-81
2023/09/15 08:00:48;;;;;;;5.55;4.75;;;;;;;19.14;65.48;95819.13;4819187;29;20285;-81
2023/09/15 08:03:13;;;;;;;5.20;4.70;;;;;;;19.22;65.03;95826.06;4801560;29;20738;-81
2023/09/15 08:05:39;;;;;;;5.00;4.50;;;;;;;19.27;65.75;95822.84;4809369;29;20284;-82
2023/09/15 08:08:04;;;;;;;6.95;5.38;;;;;;;19.46;65.54;95819.50;4816007;29;20836;-82
2023/09/15 08:10:29;;;;;;;7.53;5.22;;;;;;;19.23;65.34;95822.41;4806630;29;20190;-82
2023/09/15 08:12:55;;;;;;;8.65;5.55;;;;;;;19.52;64.84;95823.97;4818468;29;20225;-80
2023/09/15 08:15:21;;;;;;;5.00;4.50;;;;;;;19.52;64.25;95818.69;4807247;29;20205;-80
2023/09/15 08:17:46;;;;;;;5.47;4.97;;;;;;;19.25;64.55;95823.03;4819717;29;20220;-82
2023/09/15 08:20:12;;;;;;;7.10;4.70;;;;;;;19.43;63.85;95825.13;4820756;29;20208;-82
2023/09/15 08:22:40;;;;;;;6.85;4.95;;;;;;;19.53;64.35;95828.25;4821465;29;20297;-82
2023/09/15 08:25:07;;;;;;;5.95;5.45;;;;;;;19.56;64.09;95829.66;4820588;29;20250;-80
2023/09/15 08:27:32;;;;;;;7.35;6.18;;;;;;;19.79;63.73;95830.19;4817299;29;20198;-82
2023/09/15 08:29:58;;;;;;;6.25;5.18;;;;;;;19.76;63.70;95825.31;4806642;29;20687;-82
2023/09/15 08:32:24;;;;;;;6.25;4.95;;;;;;;19.85;63.55;95823.31;4831132;29;20629;-84
2023/09/15 08:34:49;;;;;;;7.47;5.97;;;;;;;19.90;62.34;95816.44;4810207;29;20205;-83
2023/09/15 08:37:14;;;;;;;6.90;5.50;;;;;;;20.11;62.90;95820.72;4810567;29;20219;-84
2023/09/15 08:39:40;;;;;;;7.47;5.32;;;;;;;20.08;61.63;95821.94;4823453;29;20194;-83
2023/09/15 08:42:12;;;;;;;7.07;5.82;;;;;;;20.32;61.46;95825.03;4825982;29;20202;-83
2023/09/15 08:44:37;;;;;;;8.35;5.90;;;;;;;20.42;60.07;95817.53;4826016;29;20217;-83
2023/09/15 08:47:04;;;;;;;7.95;5.38;;;;;;;20.54;60.81;95813.31;4822913;29;20215;-82
2023/09/15 08:49:29;;;;;;;7.70;5.78;;;;;;;20.46;61.91;95815.31;4810903;29;20197;-82
2023/09/15 08:51:55;;;;;;;6.03;5.43;;;;;;;20.22;61.67;95820.13;4804979;29;20213;-83
2023/09/15 08:54:21;;;;;;;6.65;5.50;;;;;;;20.37;60.12;95817.31;4818902;29;20217;-83
2023/09/15 08:56:47;;;;;;;6.05;5.45;;;;;;;20.49;61.00;95814.91;4796240;29;20194;-82
2023/09/15 08:59:12;;;;;;;7.25;4.55;;;;;;;20.52;59.80;95811.88;4805241;29;20189;-83
2023/09/15 09:01:38;;;;;;;7.82;5.70;;;;;;;20.47;59.61;95807.22;4809272;29;20189;-83
2023/09/15 09:04:03;;;;;;;14.48;6.43;;;;;;;20.46;60.90;95805.59;4809002;29;20203;-84
2023/09/15 09:06:32;;;;;;;6.55;5.30;;;;;;;20.68;58.97;95808.03;4826873;29;20195;-83
2023/09/15 09:08:57;;;;;;;7.03;5.72;;;;;;;20.92;57.78;95816.09;4802433;29;20190;-81
2023/09/15 09:11:23;;;;;;;9.63;5.60;;;;;;;20.86;59.46;95814.31;4801003;29;20187;-83
2023/09/15 09:13:52;;;;;;;15.13;5.70;;;;;;;20.95;57.56;95820.19;4814831;29;20595;-83
2023/09/15 09:16:18;;;;;;;6.22;5.20;;;;;;;20.99;56.17;95818.75;4803756;29;20196;-83
2023/09/15 09:19:00;;;;;;;16.13;6.15;;;;;;;21.18;56.58;95803.88;4798129;29;20670;-82
2023/09/15 09:21:27;;;;;;;6.18;5.10;;;;;;;21.14;56.73;95810.59;4812435;29;20206;-82
2023/09/15 09:23:52;;;;;;;5.50;4.82;;;;;;;21.31;56.33;95818.91;4802325;29;20210;-82
2023/09/15 09:26:18;;;;;;;5.25;4.68;;;;;;;21.45;55.43;95817.84;4818432;29;20208;-82
2023/09/15 09:28:43;;;;;;;10.07;5.97;;;;;;;21.28;55.80;95814.03;4799048;29;20194;-82
2023/09/15 09:31:09;;;;;;;10.57;6.13;;;;;;;21.39;55.49;95808.13;4798351;29;20242;-81
2023/09/15 09:33:36;;;;;;;9.68;6.55;;;;;;;21.57;56.40;95802.16;4807305;29;20313;-81
2023/09/15 09:36:12;;;;;;;8.02;6.80;;;;;;;21.43;55.94;95812.78;4804431;29;20614;-81
2023/09/15 09:38:46;;;;;;;10.20;5.75;;;;;;;21.64;56.30;95801.09;4817953;29;20194;-81
2023/09/15 09:41:12;;;;;;;8.25;6.43;;;;;;;21.78;56.95;95804.50;4811625;29;20255;-81
2023/09/15 09:43:42;;;;;;;12.38;7.57;;;;;;;21.51;56.83;95805.63;4792380;29;20210;-82
2023/09/15 09:46:08;;;;;;;20.08;8.93;;;;;;;21.64;57.27;95797.63;4812570;29;20198;-81
2023/09/15 09:48:37;;;;;;;13.85;7.65;;;;;;;21.86;56.41;95801.63;4796075;29;20190;-81
2023/09/15 09:51:03;;;;;;;9.35;7.32;;;;;;;21.80;56.32;95807.72;4794961;29;20624;-82
2023/09/15 09:53:29;;;;;;;7.15;6.45;;;;;;;22.03;55.82;95797.44;4795924;29;20229;-82
2023/09/15 09:56:05;;;;;;;14.68;7.43;;;;;;;22.11;55.67;95795.59;4804191;29;20206;-85
2023/09/15 09:58:38;;;;;;;12.48;6.82;;;;;;;22.08;55.28;95791.53;4794389;29;20201;-81
2023/09/15 10:01:06;;;;;;;9.75;6.60;;;;;;;22.02;55.40;95793.19;4814912;29;20190;-82
2023/09/15 10:03:32;;;;;;;8.98;6.63;;;;;;;22.29;55.43;95790.41;4811654;29;20334;-81
2023/09/15 10:05:59;;;;;;;13.82;6.70;;;;;;;22.29;54.48;95791.22;4809507;29;20187;-81
2023/09/15 10:08:25;;;;;;;10.15;6.47;;;;;;;22.42;53.97;95784.19;4814920;29;20285;-80
2023/09/15 10:10:51;;;;;;;9.05;6.82;;;;;;;22.46;55.07;95783.56;4796684;29;20285;-81
2023/09/15 10:13:17;;;;;;;9.65;6.70;;;;;;;22.63;52.60;95786.47;4818306;29;20221;-83
2023/09/15 10:15:44;;;;;;;9.43;5.97;;;;;;;22.64;53.87;95777.50;4821635;29;20190;-84
2023/09/15 10:18:12;;;;;;;7.25;6.55;;;;;;;22.69;54.20;95788.22;4793472;29;20283;-82
2023/09/15 10:20:39;;;;;;;11.27;6.72;;;;;;;22.84;54.57;95774.66;4798199;29;20189;-84
2023/09/15 10:23:06;;;;;;;10.05;5.90;;;;;;;22.84;53.18;95764.91;4802282;29;20207;-83
2023/09/15 10:25:41;;;;;;;9.35;5.65;;;;;;;22.88;53.00;95762.63;4805540;29;20246;-84
2023/09/15 10:28:07;;;;;;;7.22;5.85;;;;;;;22.82;53.24;95766.13;4794063;29;20198;-84
2023/09/15 10:30:36;;;;;;;6.85;5.22;;;;;;;22.49;54.08;95761.94;4801513;29;20198;-83
2023/09/15 10:33:03;;;;;;;9.90;5.93;;;;;;;22.92;53.42;95757.72;4796828;29;20276;-82
2023/09/15 10:35:28;;;;;;;6.40;5.72;;;;;;;22.81;51.79;95757.38;4815497;29;20201;-84
2023/09/15 10:37:58;;;;;;;6.97;6.38;;;;;;;22.83;52.47;95760.63;4816578;29;20237;-83
2023/09/15 10:40:24;;;;;;;6.25;5.30;;;;;;;23.15;52.20;95764.00;4807785;29;20187;-83
2023/09/15 10:42:51;;;;;;;6.63;5.60;;;;;;;23.07;52.53;95760.81;4805498;29;20221;-85
2023/09/15 10:45:16;;;;;;;6.65;5.88;;;;;;;22.99;52.24;95759.25;4814695;29;20803;-83
2023/09/15 10:47:43;;;;;;;8.25;6.50;;;;;;;22.73;51.03;95754.22;4816803;29;20198;-83
2023/09/15 10:50:09;;;;;;;9.50;6.03;;;;;;;22.82;52.15;95750.25;4802488;29;20194;-85
2023/09/15 10:52:36;;;;;;;19.13;6.70;;;;;;;23.17;50.72;95750.53;4797013;29;20235;-84
2023/09/15 10:55:02;;;;;;;6.88;5.22;;;;;;;23.36;51.04;95754.78;4796534;29;20195;-84
2023/09/15 10:57:28;;;;;;;16.58;6.75;;;;;;;23.40;50.08;95747.97;4821713;29;20209;-85
2023/09/15 10:59:56;;;;;;;16.88;7.30;;;;;;;23.27;49.88;95744.69;4818269;29;20744;-84
2023/09/15 11:02:22;;;;;;;15.60;6.57;;;;;;;23.42;51.37;95740.63;4802240;29;20291;-81
2023/09/15 11:04:48;;;;;;;10.50;7.43;;;;;;;23.37;50.64;95740.47;4813903;29;20867;-82
2023/09/15 11:07:14;;;;;;;7.45;6.63;;;;;;;23.39;49.95;95729.66;4817077;29;20269;-83
2023/09/15 11:09:42;;;;;;;7.25;5.97;;;;;;;23.20;50.67;95731.53;4793656;29;20285;-81
2023/09/15 11:12:11;;;;;;;7.65;6.82;;;;;;;22.86;51.14;95733.72;4814109;29;20190;-82
2023/09/15 11:14:36;;;;;;;13.38;7.32;;;;;;;22.95;51.51;95731.59;4811886;29;20213;-83
2023/09/15 11:17:03;;;;;;;12.35;7.00;;;;;;;23.09;50.67;95737.56;4797819;29;20251;-81
2023/09/15 11:19:30;;;;;;;8.07;7.07;;;;;;;22.80;51.98;95736.41;4814801;29;20193;-85
2023/09/15 11:21:56;;;;;;;7.28;6.45;;;;;;;23.37;50.27;95727.22;4798702;29;20716;-83
2023/09/15 11:24:22;;;;;;;8.93;6.60;;;;;;;22.79;51.40;95721.53;4805932;29;20217;-83
2023/09/15 11:26:50;;;;;;;6.95;5.72;;;;;;;23.31;51.63;95729.97;4804625;29;20190;-84
2023/09/15 11:29:16;;;;;;;7.40;6.68;;;;;;;23.46;50.77;95736.50;4797488;29;20243;-83
2023/09/15 11:31:42;;;;;;;8.68;6.40;;;;;;;23.60;51.33;95728.41;4796154;29;20759;-84
2023/09/15 11:34:08;;;;;;;7.22;6.53;;;;;;;23.60;50.01;95728.41;4801453;29;20771;-81
2023/09/15 11:36:38;;;;;;;8.05;5.85;;;;;;;23.70;49.73;95720.72;4801995;29;20281;-80
2023/09/15 11:39:07;;;;;;;7.10;6.15;;;;;;;23.91;50.42;95725.50;4816313;29;20270;-82
2023/09/15 11:41:32;;;;;;;6.90;6.20;;;;;;;23.36;50.18;95727.47;4811032;29;20784;-80
2023/09/15 11:43:58;;;;;;;7.53;6.65;;;;;;;23.39;49.84;95721.72;4805201;29;20215;-81
2023/09/15 11:46:23;;;;;;;8.02;6.78;;;;;;;23.06;51.42;95724.78;4802100;29;20202;-81
2023/09/15 11:48:49;;;;;;;26.48;8.55;;;;;;;23.58;50.90;95711.88;4802653;29;20195;-82
2023/09/15 11:51:14;;;;;;;7.65;6.75;;;;;;;24.08;49.33;95715.06;4798258;29;20190;-80
2023/09/15 11:53:41;;;;;;;6.60;5.63;;;;;;;24.09;49.56;95706.06;4791312;29;20335;-82
2023/09/15 11:56:08;;;;;;;8.98;6.22;;;;;;;24.24;49.28;95705.63;4814511;29;20656;-85
2023/09/15 11:58:33;;;;;;;14.43;7.43;;;;;;;24.26;47.92;95711.50;4820854;29;20197;-83
2023/09/15 12:01:01;;;;;;;11.25;6.60;;;;;;;24.35;48.41;95702.22;4801509;29;20200;-83
2023/09/15 12:03:29;;;;;;;10.45;7.78;;;;;;;24.45;47.17;95702.44;4805649;29;20205;-85
2023/09/15 12:05:55;;;;;;;7.00;6.30;;;;;;;23.85;49.13;95699.09;4800838;29;20195;-84
2023/09/15 12:08:21;;;;;;;8.07;6.22;;;;;;;23.95;48.82;95702.81;4799761;29;20656;-84
2023/09/15 12:10:47;;;;;;;8.93;6.10;;;;;;;23.79;48.83;95700.81;4815319;29;20755;-84
2023/09/15 12:13:12;;;;;;;8.30;5.70;;;;;;;23.87;49.06;95700.50;4806582;29;20225;-83
2023/09/15 12:15:38;;;;;;;6.55;5.95;;;;;;;23.79;48.64;95689.41;4806143;29;20193;-83
2023/09/15 12:18:05;;;;;;;7.70;6.35;;;;;;;23.56;49.84;95690.09;4803833;29;20277;-83
2023/09/15 12:20:33;;;;;;;21.83;7.28;;;;;;;24.16;48.54;95684.75;4803829;29;20189;-83
2023/09/15 12:22:59;;;;;;;7.90;6.57;;;;;;;23.88;48.79;95682.75;4812506;29;20201;-83
2023/09/15 12:25:25;;;;;;;19.20;7.68;;;;;;;24.37;48.00;95676.25;4816705;29;20212;-83
2023/09/15 12:27:52;;;;;;;28.42;8.52;;;;;;;24.39;47.58;95674.19;4802403;29;20200;-83
2023/09/15 12:30:18;;;;;;;10.20;6.30;;;;;;;24.33;47.40;95675.09;4811492;29;20216;-83